sensor_id;sensor_type;location;lat;lon;timestamp;P1;durP1;ratioP1;P2;durP2;ratioP2
4232;SDS011;2130;48.472;11.934;2023-06-26T00:01:29;10.00;;;2.23;;
4232;SDS011;2130;48.472;11.934;2023-06-26T00:03:59;9.43;;;1.73;;
4232;SDS011;2130;48.472;11.934;2023-06-26T00:06:28;11.57;;;2.20;;
4232;SDS011;2130;48.472;11.934;2023-06-26T00:08:57;9.43;;;1.70;;
4232;SDS011;2130;48.472;11.934;2023-06-26T00:11:26;10.47;;;2.00;;
4232;SDS011;2130;48.472;11.934;2023-06-26T00:13:57;9.67;;;1.93;;
4232;SDS011;2130;48.472;11.934;2023-06-26T00:16:27;11.60;;;2.10;;
4232;SDS011;2130;48.472;11.934;2023-06-26T00:18:55;11.37;;;2.37;;
4232;SDS011;2130;48.472;11.934;2023-06-26T00:21:24;10.13;;;1.90;;
4232;SDS011;2130;48.472;11.934;2023-06-26T00:23:52;9.60;;;2.00;;
4232;SDS011;2130;48.472;11.934;2023-06-26T00:26:21;8.70;;;1.87;;
4232;SDS011;2130;48.472;11.934;2023-06-26T00:28:51;10.37;;;2.03;;
4232;SDS011;2130;48.472;11.934;2023-06-26T00:31:19;10.70;;;2.30;;
4232;SDS011;2130;48.472;11.934;2023-06-26T00:33:48;9.57;;;1.90;;
4232;SDS011;2130;48.472;11.934;2023-06-26T00:36:16;9.60;;;1.87;;
4232;SDS011;2130;48.472;11.934;2023-06-26T00:38:45;10.93;;;2.03;;
4232;SDS011;2130;48.472;11.934;2023-06-26T00:41:13;11.30;;;2.27;;
4232;SDS011;2130;48.472;11.934;2023-06-26T00:43:44;10.40;;;2.00;;
4232;SDS011;2130;48.472;11.934;2023-06-26T00:46:13;10.63;;;2.13;;
4232;SDS011;2130;48.472;11.934;2023-06-26T00:48:42;11.63;;;2.13;;
4232;SDS011;2130;48.472;11.934;2023-06-26T00:51:12;13.23;;;1.83;;
4232;SDS011;2130;48.472;11.934;2023-06-26T00:53:41;8.90;;;1.73;;
4232;SDS011;2130;48.472;11.934;2023-06-26T00:56:09;10.53;;;2.00;;
4232;SDS011;2130;48.472;11.934;2023-06-26T00:58:38;12.73;;;1.90;;
4232;SDS011;2130;48.472;11.934;2023-06-26T01:01:07;10.20;;;2.20;;
4232;SDS011;2130;48.472;11.934;2023-06-26T01:03:42;10.87;;;2.10;;
4232;SDS011;2130;48.472;11.934;2023-06-26T01:06:12;9.37;;;1.53;;
4232;SDS011;2130;48.472;11.934;2023-06-26T01:08:41;10.17;;;1.90;;
4232;SDS011;2130;48.472;11.934;2023-06-26T01:11:10;10.43;;;2.20;;
4232;SDS011;2130;48.472;11.934;2023-06-26T01:13:38;12.80;;;2.20;;
4232;SDS011;2130;48.472;11.934;2023-06-26T01:16:08;9.67;;;1.80;;
4232;SDS011;2130;48.472;11.934;2023-06-26T01:18:38;10.80;;;2.20;;
4232;SDS011;2130;48.472;11.934;2023-06-26T01:21:09;9.40;;;2.30;;
4232;SDS011;2130;48.472;11.934;2023-06-26T01:23:43;11.23;;;2.10;;
4232;SDS011;2130;48.472;11.934;2023-06-26T01:26:19;10.73;;;2.00;;
4232;SDS011;2130;48.472;11.934;2023-06-26T01:28:49;11.40;;;1.90;;
4232;SDS011;2130;48.472;11.934;2023-06-26T01:31:18;10.17;;;1.90;;
4232;SDS011;2130;48.472;11.934;2023-06-26T01:33:47;9.33;;;2.23;;
4232;SDS011;2130;48.472;11.934;2023-06-26T01:36:15;9.87;;;2.10;;
4232;SDS011;2130;48.472;11.934;2023-06-26T01:38:44;10.30;;;1.77;;
4232;SDS011;2130;48.472;11.934;2023-06-26T01:41:12;11.23;;;1.80;;
4232;SDS011;2130;48.472;11.934;2023-06-26T01:43:46;10.23;;;1.87;;
4232;SDS011;2130;48.472;11.934;2023-06-26T01:46:27;10.30;;;1.80;;
4232;SDS011;2130;48.472;11.934;2023-06-26T01:49:03;10.10;;;1.80;;
4232;SDS011;2130;48.472;11.934;2023-06-26T01:51:37;10.47;;;2.03;;
4232;SDS011;2130;48.472;11.934;2023-06-26T01:54:13;11.23;;;2.20;;
4232;SDS011;2130;48.472;11.934;2023-06-26T01:56:43;11.33;;;2.50;;
4232;SDS011;2130;48.472;11.934;2023-06-26T01:59:14;9.10;;;1.73;;
4232;SDS011;2130;48.472;11.934;2023-06-26T02:01:42;11.83;;;2.10;;
4232;SDS011;2130;48.472;11.934;2023-06-26T02:04:11;10.60;;;1.97;;
4232;SDS011;2130;48.472;11.934;2023-06-26T02:06:39;10.93;;;2.20;;
4232;SDS011;2130;48.472;11.934;2023-06-26T02:09:07;11.93;;;2.00;;
4232;SDS011;2130;48.472;11.934;2023-06-26T02:11:35;11.20;;;2.10;;
4232;SDS011;2130;48.472;11.934;2023-06-26T02:14:04;13.77;;;1.97;;
4232;SDS011;2130;48.472;11.934;2023-06-26T02:16:33;10.93;;;1.97;;
4232;SDS011;2130;48.472;11.934;2023-06-26T02:19:01;10.53;;;2.00;;
4232;SDS011;2130;48.472;11.934;2023-06-26T02:21:30;10.80;;;2.00;;
4232;SDS011;2130;48.472;11.934;2023-06-26T02:23:58;11.40;;;1.90;;
4232;SDS011;2130;48.472;11.934;2023-06-26T02:26:26;11.57;;;2.00;;
4232;SDS011;2130;48.472;11.934;2023-06-26T02:28:54;11.83;;;2.20;;
4232;SDS011;2130;48.472;11.934;2023-06-26T02:31:22;13.93;;;2.67;;
4232;SDS011;2130;48.472;11.934;2023-06-26T02:33:56;11.67;;;2.20;;
4232;SDS011;2130;48.472;11.934;2023-06-26T02:36:24;11.40;;;2.43;;
4232;SDS011;2130;48.472;11.934;2023-06-26T02:38:52;11.10;;;2.07;;
4232;SDS011;2130;48.472;11.934;2023-06-26T02:41:20;14.00;;;1.93;;
4232;SDS011;2130;48.472;11.934;2023-06-26T02:43:49;10.90;;;2.00;;
4232;SDS011;2130;48.472;11.934;2023-06-26T02:46:18;11.37;;;1.80;;
4232;SDS011;2130;48.472;11.934;2023-06-26T02:48:46;10.60;;;2.00;;
4232;SDS011;2130;48.472;11.934;2023-06-26T02:51:16;15.30;;;2.20;;
4232;SDS011;2130;48.472;11.934;2023-06-26T02:53:44;10.03;;;2.17;;
4232;SDS011;2130;48.472;11.934;2023-06-26T02:56:13;10.63;;;2.03;;
4232;SDS011;2130;48.472;11.934;2023-06-26T02:58:41;11.37;;;2.20;;
4232;SDS011;2130;48.472;11.934;2023-06-26T03:01:09;9.70;;;1.80;;
4232;SDS011;2130;48.472;11.934;2023-06-26T03:03:38;12.13;;;2.10;;
4232;SDS011;2130;48.472;11.934;2023-06-26T03:06:13;11.10;;;2.00;;
4232;SDS011;2130;48.472;11.934;2023-06-26T03:08:43;10.53;;;1.87;;
4232;SDS011;2130;48.472;11.934;2023-06-26T03:11:13;12.63;;;2.17;;
4232;SDS011;2130;48.472;11.934;2023-06-26T03:13:42;10.93;;;2.00;;
4232;SDS011;2130;48.472;11.934;2023-06-26T03:16:10;12.93;;;2.17;;
4232;SDS011;2130;48.472;11.934;2023-06-26T03:18:38;10.20;;;1.60;;
4232;SDS011;2130;48.472;11.934;2023-06-26T03:21:06;11.23;;;2.20;;
4232;SDS011;2130;48.472;11.934;2023-06-26T03:23:39;10.67;;;1.90;;
4232;SDS011;2130;48.472;11.934;2023-06-26T03:26:08;11.40;;;2.03;;
4232;SDS011;2130;48.472;11.934;2023-06-26T03:28:37;11.40;;;2.00;;
4232;SDS011;2130;48.472;11.934;2023-06-26T03:31:07;10.87;;;1.97;;
4232;SDS011;2130;48.472;11.934;2023-06-26T03:33:35;10.53;;;1.73;;
4232;SDS011;2130;48.472;11.934;2023-06-26T03:36:05;11.97;;;2.13;;
4232;SDS011;2130;48.472;11.934;2023-06-26T03:38:34;12.80;;;1.80;;
4232;SDS011;2130;48.472;11.934;2023-06-26T03:41:02;12.83;;;2.53;;
4232;SDS011;2130;48.472;11.934;2023-06-26T03:43:32;9.90;;;2.00;;
4232;SDS011;2130;48.472;11.934;2023-06-26T03:46:10;10.70;;;1.87;;
4232;SDS011;2130;48.472;11.934;2023-06-26T03:48:39;12.93;;;2.20;;
4232;SDS011;2130;48.472;11.934;2023-06-26T03:51:08;15.37;;;2.17;;
4232;SDS011;2130;48.472;11.934;2023-06-26T03:53:37;12.57;;;2.30;;
4232;SDS011;2130;48.472;11.934;2023-06-26T03:56:05;11.00;;;1.77;;
4232;SDS011;2130;48.472;11.934;2023-06-26T03:58:35;10.87;;;1.90;;
4232;SDS011;2130;48.472;11.934;2023-06-26T04:01:03;11.77;;;2.00;;
4232;SDS011;2130;48.472;11.934;2023-06-26T04:03:31;11.90;;;1.70;;
4232;SDS011;2130;48.472;11.934;2023-06-26T04:05:59;12.30;;;2.20;;
4232;SDS011;2130;48.472;11.934;2023-06-26T04:08:28;11.20;;;1.77;;
4232;SDS011;2130;48.472;11.934;2023-06-26T04:10:56;11.57;;;2.20;;
4232;SDS011;2130;48.472;11.934;2023-06-26T04:13:25;13.47;;;2.20;;
4232;SDS011;2130;48.472;11.934;2023-06-26T04:15:55;10.80;;;1.67;;
4232;SDS011;2130;48.472;11.934;2023-06-26T04:18:23;11.37;;;2.10;;
4232;SDS011;2130;48.472;11.934;2023-06-26T04:21:08;11.87;;;2.27;;
4232;SDS011;2130;48.472;11.934;2023-06-26T04:23:38;13.10;;;2.70;;
4232;SDS011;2130;48.472;11.934;2023-06-26T04:26:07;11.07;;;1.90;;
4232;SDS011;2130;48.472;11.934;2023-06-26T04:28:35;12.40;;;2.00;;
4232;SDS011;2130;48.472;11.934;2023-06-26T04:31:05;11.40;;;2.27;;
4232;SDS011;2130;48.472;11.934;2023-06-26T04:33:35;12.57;;;2.43;;
4232;SDS011;2130;48.472;11.934;2023-06-26T04:36:07;12.90;;;2.30;;
4232;SDS011;2130;48.472;11.934;2023-06-26T04:38:35;13.43;;;2.27;;
4232;SDS011;2130;48.472;11.934;2023-06-26T04:41:03;12.30;;;2.60;;
4232;SDS011;2130;48.472;11.934;2023-06-26T04:43:31;11.90;;;2.10;;
4232;SDS011;2130;48.472;11.934;2023-06-26T04:45:59;11.50;;;2.20;;
4232;SDS011;2130;48.472;11.934;2023-06-26T04:48:29;11.37;;;2.13;;
4232;SDS011;2130;48.472;11.934;2023-06-26T04:50:57;12.40;;;2.17;;
4232;SDS011;2130;48.472;11.934;2023-06-26T04:53:26;11.50;;;2.30;;
4232;SDS011;2130;48.472;11.934;2023-06-26T04:55:54;12.70;;;2.37;;
4232;SDS011;2130;48.472;11.934;2023-06-26T04:58:22;12.17;;;2.60;;
4232;SDS011;2130;48.472;11.934;2023-06-26T05:00:50;11.27;;;2.00;;
4232;SDS011;2130;48.472;11.934;2023-06-26T05:03:18;11.20;;;2.13;;
4232;SDS011;2130;48.472;11.934;2023-06-26T05:05:48;14.00;;;2.70;;
4232;SDS011;2130;48.472;11.934;2023-06-26T05:08:17;11.20;;;2.57;;
4232;SDS011;2130;48.472;11.934;2023-06-26T05:10:46;14.70;;;2.80;;
4232;SDS011;2130;48.472;11.934;2023-06-26T05:13:14;11.50;;;2.43;;
4232;SDS011;2130;48.472;11.934;2023-06-26T05:15:44;12.60;;;2.67;;
4232;SDS011;2130;48.472;11.934;2023-06-26T05:18:12;12.80;;;2.77;;
4232;SDS011;2130;48.472;11.934;2023-06-26T05:20:41;12.47;;;2.67;;
4232;SDS011;2130;48.472;11.934;2023-06-26T05:23:12;14.07;;;2.60;;
4232;SDS011;2130;48.472;11.934;2023-06-26T05:25:40;14.17;;;2.87;;
4232;SDS011;2130;48.472;11.934;2023-06-26T05:28:09;13.07;;;2.57;;
4232;SDS011;2130;48.472;11.934;2023-06-26T05:30:39;11.77;;;2.40;;
4232;SDS011;2130;48.472;11.934;2023-06-26T05:33:10;11.43;;;2.23;;
4232;SDS011;2130;48.472;11.934;2023-06-26T05:35:39;12.47;;;2.50;;
4232;SDS011;2130;48.472;11.934;2023-06-26T05:38:07;13.53;;;2.87;;
4232;SDS011;2130;48.472;11.934;2023-06-26T05:40:38;12.40;;;2.70;;
4232;SDS011;2130;48.472;11.934;2023-06-26T05:43:07;11.80;;;2.70;;
4232;SDS011;2130;48.472;11.934;2023-06-26T05:45:36;11.03;;;2.40;;
4232;SDS011;2130;48.472;11.934;2023-06-26T05:48:04;13.17;;;3.00;;
4232;SDS011;2130;48.472;11.934;2023-06-26T05:50:33;10.93;;;2.40;;
4232;SDS011;2130;48.472;11.934;2023-06-26T05:53:02;14.00;;;2.70;;
4232;SDS011;2130;48.472;11.934;2023-06-26T05:55:32;11.03;;;2.83;;
4232;SDS011;2130;48.472;11.934;2023-06-26T05:58:02;14.73;;;2.93;;
4232;SDS011;2130;48.472;11.934;2023-06-26T06:00:31;11.90;;;2.80;;
4232;SDS011;2130;48.472;11.934;2023-06-26T06:02:59;10.77;;;2.10;;
4232;SDS011;2130;48.472;11.934;2023-06-26T06:05:28;11.30;;;2.60;;
4232;SDS011;2130;48.472;11.934;2023-06-26T06:07:56;11.60;;;3.20;;
4232;SDS011;2130;48.472;11.934;2023-06-26T06:10:25;12.37;;;3.00;;
4232;SDS011;2130;48.472;11.934;2023-06-26T06:12:53;12.07;;;2.87;;
4232;SDS011;2130;48.472;11.934;2023-06-26T06:15:22;10.47;;;2.20;;
4232;SDS011;2130;48.472;11.934;2023-06-26T06:17:51;13.67;;;2.37;;
4232;SDS011;2130;48.472;11.934;2023-06-26T06:20:19;10.77;;;2.77;;
4232;SDS011;2130;48.472;11.934;2023-06-26T06:22:47;10.77;;;2.33;;
4232;SDS011;2130;48.472;11.934;2023-06-26T06:25:16;11.77;;;2.67;;
4232;SDS011;2130;48.472;11.934;2023-06-26T06:27:44;11.43;;;2.67;;
4232;SDS011;2130;48.472;11.934;2023-06-26T06:30:13;10.50;;;2.33;;
4232;SDS011;2130;48.472;11.934;2023-06-26T06:32:42;11.67;;;2.80;;
4232;SDS011;2130;48.472;11.934;2023-06-26T06:35:11;12.97;;;2.67;;
4232;SDS011;2130;48.472;11.934;2023-06-26T06:37:39;10.80;;;2.47;;
4232;SDS011;2130;48.472;11.934;2023-06-26T06:40:09;13.17;;;2.73;;
4232;SDS011;2130;48.472;11.934;2023-06-26T06:42:38;10.83;;;2.70;;
4232;SDS011;2130;48.472;11.934;2023-06-26T06:45:06;12.73;;;2.60;;
4232;SDS011;2130;48.472;11.934;2023-06-26T06:47:36;11.27;;;2.57;;
4232;SDS011;2130;48.472;11.934;2023-06-26T06:50:06;12.13;;;2.57;;
4232;SDS011;2130;48.472;11.934;2023-06-26T06:52:38;10.40;;;2.57;;
4232;SDS011;2130;48.472;11.934;2023-06-26T06:55:07;9.37;;;2.27;;
4232;SDS011;2130;48.472;11.934;2023-06-26T06:57:36;12.90;;;2.57;;
4232;SDS011;2130;48.472;11.934;2023-06-26T07:00:06;10.77;;;2.23;;
4232;SDS011;2130;48.472;11.934;2023-06-26T07:02:36;10.30;;;2.80;;
4232;SDS011;2130;48.472;11.934;2023-06-26T07:05:07;10.27;;;2.30;;
4232;SDS011;2130;48.472;11.934;2023-06-26T07:07:36;9.20;;;2.23;;
4232;SDS011;2130;48.472;11.934;2023-06-26T07:10:06;14.27;;;2.80;;
4232;SDS011;2130;48.472;11.934;2023-06-26T07:12:35;11.90;;;2.63;;
4232;SDS011;2130;48.472;11.934;2023-06-26T07:15:04;9.77;;;2.40;;
4232;SDS011;2130;48.472;11.934;2023-06-26T07:17:34;10.07;;;2.50;;
4232;SDS011;2130;48.472;11.934;2023-06-26T07:20:05;11.00;;;2.30;;
4232;SDS011;2130;48.472;11.934;2023-06-26T07:22:36;11.83;;;2.40;;
4232;SDS011;2130;48.472;11.934;2023-06-26T07:25:05;9.57;;;2.53;;
4232;SDS011;2130;48.472;11.934;2023-06-26T07:27:36;9.00;;;2.13;;
4232;SDS011;2130;48.472;11.934;2023-06-26T07:30:04;9.93;;;2.50;;
4232;SDS011;2130;48.472;11.934;2023-06-26T07:32:35;10.57;;;2.93;;
4232;SDS011;2130;48.472;11.934;2023-06-26T07:35:04;9.97;;;2.50;;
4232;SDS011;2130;48.472;11.934;2023-06-26T07:37:34;11.00;;;2.83;;
4232;SDS011;2130;48.472;11.934;2023-06-26T07:40:02;12.73;;;2.93;;
4232;SDS011;2130;48.472;11.934;2023-06-26T07:42:31;9.23;;;2.30;;
4232;SDS011;2130;48.472;11.934;2023-06-26T07:45:00;10.20;;;2.70;;
4232;SDS011;2130;48.472;11.934;2023-06-26T07:47:28;9.73;;;2.60;;
4232;SDS011;2130;48.472;11.934;2023-06-26T07:49:57;9.27;;;2.57;;
4232;SDS011;2130;48.472;11.934;2023-06-26T07:52:25;9.27;;;2.33;;
4232;SDS011;2130;48.472;11.934;2023-06-26T07:54:55;9.97;;;2.23;;
4232;SDS011;2130;48.472;11.934;2023-06-26T07:57:23;9.40;;;2.30;;
4232;SDS011;2130;48.472;11.934;2023-06-26T07:59:51;9.43;;;2.27;;
4232;SDS011;2130;48.472;11.934;2023-06-26T08:02:20;8.90;;;2.10;;
4232;SDS011;2130;48.472;11.934;2023-06-26T08:04:48;9.53;;;2.23;;
4232;SDS011;2130;48.472;11.934;2023-06-26T08:07:17;7.70;;;1.87;;
4232;SDS011;2130;48.472;11.934;2023-06-26T08:09:47;8.57;;;2.30;;
4232;SDS011;2130;48.472;11.934;2023-06-26T08:12:20;10.57;;;2.30;;
4232;SDS011;2130;48.472;11.934;2023-06-26T08:14:51;9.80;;;2.87;;
4232;SDS011;2130;48.472;11.934;2023-06-26T08:17:20;8.40;;;2.03;;
4232;SDS011;2130;48.472;11.934;2023-06-26T08:19:48;9.57;;;2.10;;
4232;SDS011;2130;48.472;11.934;2023-06-26T08:22:16;8.90;;;2.70;;
4232;SDS011;2130;48.472;11.934;2023-06-26T08:24:45;9.00;;;2.10;;
4232;SDS011;2130;48.472;11.934;2023-06-26T08:27:13;9.20;;;2.17;;
4232;SDS011;2130;48.472;11.934;2023-06-26T08:30:39;8.17;;;2.40;;
4232;SDS011;2130;48.472;11.934;2023-06-26T08:33:12;8.47;;;1.97;;
4232;SDS011;2130;48.472;11.934;2023-06-26T08:35:41;7.80;;;2.33;;
4232;SDS011;2130;48.472;11.934;2023-06-26T08:41:06;7.93;;;2.30;;
4232;SDS011;2130;48.472;11.934;2023-06-26T08:43:36;7.60;;;1.90;;
4232;SDS011;2130;48.472;11.934;2023-06-26T08:46:05;9.60;;;2.63;;
4232;SDS011;2130;48.472;11.934;2023-06-26T08:48:34;7.57;;;1.90;;
4232;SDS011;2130;48.472;11.934;2023-06-26T08:51:05;8.23;;;2.13;;
4232;SDS011;2130;48.472;11.934;2023-06-26T08:53:39;7.80;;;2.27;;
4232;SDS011;2130;48.472;11.934;2023-06-26T08:56:10;8.00;;;2.30;;
4232;SDS011;2130;48.472;11.934;2023-06-26T08:58:40;7.93;;;2.60;;
4232;SDS011;2130;48.472;11.934;2023-06-26T09:01:11;8.43;;;2.40;;
4232;SDS011;2130;48.472;11.934;2023-06-26T09:03:41;8.30;;;2.37;;
4232;SDS011;2130;48.472;11.934;2023-06-26T09:06:10;7.77;;;1.90;;
4232;SDS011;2130;48.472;11.934;2023-06-26T09:08:39;7.87;;;2.37;;
4232;SDS011;2130;48.472;11.934;2023-06-26T09:11:07;9.47;;;2.47;;
4232;SDS011;2130;48.472;11.934;2023-06-26T09:13:35;7.00;;;2.10;;
4232;SDS011;2130;48.472;11.934;2023-06-26T09:16:04;7.07;;;2.20;;
4232;SDS011;2130;48.472;11.934;2023-06-26T09:18:36;7.80;;;2.07;;
4232;SDS011;2130;48.472;11.934;2023-06-26T09:21:06;8.87;;;2.60;;
4232;SDS011;2130;48.472;11.934;2023-06-26T09:23:34;8.03;;;2.40;;
4232;SDS011;2130;48.472;11.934;2023-06-26T09:26:03;7.00;;;1.97;;
4232;SDS011;2130;48.472;11.934;2023-06-26T09:28:32;8.20;;;2.10;;
4232;SDS011;2130;48.472;11.934;2023-06-26T09:31:01;7.77;;;2.27;;
4232;SDS011;2130;48.472;11.934;2023-06-26T09:33:36;6.20;;;1.93;;
4232;SDS011;2130;48.472;11.934;2023-06-26T09:36:05;6.90;;;2.40;;
4232;SDS011;2130;48.472;11.934;2023-06-26T09:38:36;9.83;;;2.43;;
4232;SDS011;2130;48.472;11.934;2023-06-26T09:41:04;7.43;;;2.50;;
4232;SDS011;2130;48.472;11.934;2023-06-26T09:43:33;8.07;;;2.40;;
4232;SDS011;2130;48.472;11.934;2023-06-26T09:46:03;6.47;;;2.10;;
4232;SDS011;2130;48.472;11.934;2023-06-26T09:48:32;6.13;;;2.10;;
4232;SDS011;2130;48.472;11.934;2023-06-26T09:51:02;6.80;;;2.00;;
4232;SDS011;2130;48.472;11.934;2023-06-26T09:53:41;7.40;;;2.30;;
4232;SDS011;2130;48.472;11.934;2023-06-26T09:56:14;7.63;;;2.03;;
4232;SDS011;2130;48.472;11.934;2023-06-26T09:58:44;7.60;;;2.30;;
4232;SDS011;2130;48.472;11.934;2023-06-26T10:01:13;6.03;;;2.17;;
4232;SDS011;2130;48.472;11.934;2023-06-26T10:03:43;6.60;;;2.23;;
4232;SDS011;2130;48.472;11.934;2023-06-26T10:06:13;6.70;;;2.27;;
4232;SDS011;2130;48.472;11.934;2023-06-26T10:13:19;6.53;;;2.17;;
4232;SDS011;2130;48.472;11.934;2023-06-26T10:22:18;6.00;;;2.17;;
4232;SDS011;2130;48.472;11.934;2023-06-26T10:24:55;6.27;;;2.03;;
4232;SDS011;2130;48.472;11.934;2023-06-26T10:27:25;6.43;;;1.93;;
4232;SDS011;2130;48.472;11.934;2023-06-26T10:29:56;7.30;;;2.27;;
4232;SDS011;2130;48.472;11.934;2023-06-26T10:32:27;5.77;;;2.03;;
4232;SDS011;2130;48.472;11.934;2023-06-26T10:34:56;6.73;;;2.30;;
4232;SDS011;2130;48.472;11.934;2023-06-26T10:37:44;6.83;;;2.17;;
4232;SDS011;2130;48.472;11.934;2023-06-26T10:40:14;6.00;;;1.87;;
4232;SDS011;2130;48.472;11.934;2023-06-26T10:42:45;5.70;;;1.90;;
4232;SDS011;2130;48.472;11.934;2023-06-26T10:45:13;8.30;;;2.07;;
4232;SDS011;2130;48.472;11.934;2023-06-26T10:47:45;5.27;;;1.97;;
4232;SDS011;2130;48.472;11.934;2023-06-26T10:50:18;7.53;;;2.07;;
4232;SDS011;2130;48.472;11.934;2023-06-26T10:53:15;7.90;;;2.47;;
4232;SDS011;2130;48.472;11.934;2023-06-26T10:55:48;6.10;;;1.93;;
4232;SDS011;2130;48.472;11.934;2023-06-26T10:58:29;5.77;;;1.80;;
4232;SDS011;2130;48.472;11.934;2023-06-26T11:01:17;7.43;;;2.17;;
4232;SDS011;2130;48.472;11.934;2023-06-26T11:03:47;6.47;;;2.10;;
4232;SDS011;2130;48.472;11.934;2023-06-26T11:06:18;6.27;;;1.73;;
4232;SDS011;2130;48.472;11.934;2023-06-26T11:08:49;5.80;;;2.07;;
4232;SDS011;2130;48.472;11.934;2023-06-26T11:11:18;5.63;;;1.90;;
4232;SDS011;2130;48.472;11.934;2023-06-26T11:13:47;5.87;;;2.30;;
4232;SDS011;2130;48.472;11.934;2023-06-26T11:16:18;6.30;;;2.10;;
4232;SDS011;2130;48.472;11.934;2023-06-26T11:18:46;7.13;;;2.10;;
4232;SDS011;2130;48.472;11.934;2023-06-26T11:21:15;6.40;;;2.00;;
4232;SDS011;2130;48.472;11.934;2023-06-26T11:23:43;5.87;;;2.37;;
4232;SDS011;2130;48.472;11.934;2023-06-26T11:26:15;6.00;;;2.60;;
4232;SDS011;2130;48.472;11.934;2023-06-26T11:28:48;6.27;;;2.10;;
4232;SDS011;2130;48.472;11.934;2023-06-26T11:31:23;5.70;;;2.03;;
4232;SDS011;2130;48.472;11.934;2023-06-26T11:33:52;5.50;;;2.13;;
4232;SDS011;2130;48.472;11.934;2023-06-26T11:36:22;5.90;;;2.40;;
4232;SDS011;2130;48.472;11.934;2023-06-26T11:38:52;5.80;;;2.00;;
4232;SDS011;2130;48.472;11.934;2023-06-26T11:41:23;5.40;;;2.00;;
4232;SDS011;2130;48.472;11.934;2023-06-26T11:43:51;5.40;;;1.93;;
4232;SDS011;2130;48.472;11.934;2023-06-26T11:46:21;5.27;;;1.70;;
4232;SDS011;2130;48.472;11.934;2023-06-26T11:48:51;5.67;;;2.37;;
4232;SDS011;2130;48.472;11.934;2023-06-26T11:51:22;6.50;;;2.20;;
4232;SDS011;2130;48.472;11.934;2023-06-26T11:53:51;6.20;;;2.20;;
4232;SDS011;2130;48.472;11.934;2023-06-26T11:56:20;6.33;;;1.87;;
4232;SDS011;2130;48.472;11.934;2023-06-26T11:58:57;6.40;;;2.20;;
4232;SDS011;2130;48.472;11.934;2023-06-26T12:01:29;5.23;;;2.00;;
4232;SDS011;2130;48.472;11.934;2023-06-26T12:03:59;4.43;;;1.70;;
4232;SDS011;2130;48.472;11.934;2023-06-26T12:06:30;5.90;;;2.10;;
4232;SDS011;2130;48.472;11.934;2023-06-26T12:09:00;6.67;;;2.00;;
4232;SDS011;2130;48.472;11.934;2023-06-26T12:11:30;5.77;;;1.80;;
4232;SDS011;2130;48.472;11.934;2023-06-26T12:14:00;4.80;;;1.60;;
4232;SDS011;2130;48.472;11.934;2023-06-26T12:16:29;4.37;;;1.63;;
4232;SDS011;2130;48.472;11.934;2023-06-26T12:18:58;6.43;;;2.23;;
4232;SDS011;2130;48.472;11.934;2023-06-26T12:21:33;6.10;;;2.13;;
4232;SDS011;2130;48.472;11.934;2023-06-26T12:24:13;6.93;;;2.00;;
4232;SDS011;2130;48.472;11.934;2023-06-26T12:26:42;4.57;;;1.57;;
4232;SDS011;2130;48.472;11.934;2023-06-26T12:29:13;5.10;;;2.10;;
4232;SDS011;2130;48.472;11.934;2023-06-26T12:31:42;5.40;;;1.90;;
4232;SDS011;2130;48.472;11.934;2023-06-26T12:34:11;5.03;;;1.73;;
4232;SDS011;2130;48.472;11.934;2023-06-26T12:36:44;5.87;;;1.77;;
4232;SDS011;2130;48.472;11.934;2023-06-26T12:39:14;6.70;;;2.20;;
4232;SDS011;2130;48.472;11.934;2023-06-26T12:41:44;5.50;;;2.00;;
4232;SDS011;2130;48.472;11.934;2023-06-26T12:44:21;5.30;;;1.90;;
4232;SDS011;2130;48.472;11.934;2023-06-26T12:46:53;4.17;;;1.70;;
4232;SDS011;2130;48.472;11.934;2023-06-26T12:49:28;6.00;;;2.10;;
4232;SDS011;2130;48.472;11.934;2023-06-26T12:51:58;5.43;;;2.07;;
4232;SDS011;2130;48.472;11.934;2023-06-26T12:54:27;5.90;;;1.80;;
4232;SDS011;2130;48.472;11.934;2023-06-26T12:56:56;5.90;;;2.00;;
4232;SDS011;2130;48.472;11.934;2023-06-26T12:59:25;5.33;;;1.73;;
4232;SDS011;2130;48.472;11.934;2023-06-26T13:01:54;5.43;;;2.00;;
4232;SDS011;2130;48.472;11.934;2023-06-26T13:04:22;5.23;;;1.83;;
4232;SDS011;2130;48.472;11.934;2023-06-26T13:06:51;8.53;;;1.80;;
4232;SDS011;2130;48.472;11.934;2023-06-26T13:09:22;6.10;;;2.10;;
4232;SDS011;2130;48.472;11.934;2023-06-26T13:11:51;5.93;;;2.20;;
4232;SDS011;2130;48.472;11.934;2023-06-26T13:14:20;5.43;;;2.20;;
4232;SDS011;2130;48.472;11.934;2023-06-26T13:16:50;4.43;;;1.80;;
4232;SDS011;2130;48.472;11.934;2023-06-26T13:19:18;5.10;;;1.97;;
4232;SDS011;2130;48.472;11.934;2023-06-26T13:21:46;6.63;;;1.98;;
4232;SDS011;2130;48.472;11.934;2023-06-26T13:24:14;4.90;;;2.10;;
4232;SDS011;2130;48.472;11.934;2023-06-26T13:26:42;4.97;;;2.22;;
4232;SDS011;2130;48.472;11.934;2023-06-26T13:29:11;6.07;;;2.20;;
4232;SDS011;2130;48.472;11.934;2023-06-26T13:31:39;5.97;;;1.95;;
4232;SDS011;2130;48.472;11.934;2023-06-26T13:34:09;5.35;;;2.08;;
4232;SDS011;2130;48.472;11.934;2023-06-26T13:36:47;5.87;;;2.13;;
4232;SDS011;2130;48.472;11.934;2023-06-26T13:39:17;5.47;;;2.10;;
4232;SDS011;2130;48.472;11.934;2023-06-26T13:41:46;6.50;;;2.17;;
4232;SDS011;2130;48.472;11.934;2023-06-26T13:44:14;4.95;;;2.17;;
4232;SDS011;2130;48.472;11.934;2023-06-26T13:47:01;6.45;;;1.88;;
4232;SDS011;2130;48.472;11.934;2023-06-26T13:49:31;4.80;;;1.75;;
4232;SDS011;2130;48.472;11.934;2023-06-26T13:51:59;4.60;;;1.85;;
4232;SDS011;2130;48.472;11.934;2023-06-26T13:54:28;5.25;;;2.20;;
4232;SDS011;2130;48.472;11.934;2023-06-26T13:56:56;5.82;;;2.05;;
4232;SDS011;2130;48.472;11.934;2023-06-26T13:59:24;5.85;;;1.85;;
4232;SDS011;2130;48.472;11.934;2023-06-26T14:01:54;4.88;;;1.92;;
4232;SDS011;2130;48.472;11.934;2023-06-26T14:04:22;4.75;;;1.98;;
4232;SDS011;2130;48.472;11.934;2023-06-26T14:06:52;4.50;;;1.80;;
4232;SDS011;2130;48.472;11.934;2023-06-26T14:09:22;5.05;;;1.92;;
4232;SDS011;2130;48.472;11.934;2023-06-26T14:11:50;6.03;;;2.20;;
4232;SDS011;2130;48.472;11.934;2023-06-26T14:14:18;5.68;;;1.80;;
4232;SDS011;2130;48.472;11.934;2023-06-26T14:16:46;5.55;;;2.20;;
4232;SDS011;2130;48.472;11.934;2023-06-26T14:19:16;6.18;;;1.83;;
4232;SDS011;2130;48.472;11.934;2023-06-26T14:21:45;4.47;;;1.50;;
4232;SDS011;2130;48.472;11.934;2023-06-26T14:24:14;7.35;;;1.70;;
4232;SDS011;2130;48.472;11.934;2023-06-26T14:26:43;5.53;;;2.00;;
4232;SDS011;2130;48.472;11.934;2023-06-26T14:29:11;5.20;;;1.92;;
4232;SDS011;2130;48.472;11.934;2023-06-26T14:31:43;5.03;;;2.10;;
4232;SDS011;2130;48.472;11.934;2023-06-26T14:34:15;5.00;;;1.80;;
4232;SDS011;2130;48.472;11.934;2023-06-26T14:36:43;5.82;;;2.10;;
4232;SDS011;2130;48.472;11.934;2023-06-26T14:39:11;6.43;;;2.10;;
4232;SDS011;2130;48.472;11.934;2023-06-26T14:41:41;4.75;;;1.83;;
4232;SDS011;2130;48.472;11.934;2023-06-26T14:44:10;4.55;;;1.75;;
4232;SDS011;2130;48.472;11.934;2023-06-26T14:46:39;4.65;;;1.70;;
4232;SDS011;2130;48.472;11.934;2023-06-26T14:49:07;4.18;;;1.70;;
4232;SDS011;2130;48.472;11.934;2023-06-26T14:51:35;5.57;;;2.10;;
4232;SDS011;2130;48.472;11.934;2023-06-26T14:54:05;4.00;;;1.75;;
4232;SDS011;2130;48.472;11.934;2023-06-26T14:56:33;3.90;;;1.65;;
4232;SDS011;2130;48.472;11.934;2023-06-26T14:59:03;4.82;;;2.10;;
4232;SDS011;2130;48.472;11.934;2023-06-26T15:01:31;4.47;;;1.70;;
4232;SDS011;2130;48.472;11.934;2023-06-26T15:03:59;4.93;;;1.70;;
4232;SDS011;2130;48.472;11.934;2023-06-26T15:06:27;4.47;;;1.50;;
4232;SDS011;2130;48.472;11.934;2023-06-26T15:08:55;5.93;;;2.10;;
4232;SDS011;2130;48.472;11.934;2023-06-26T15:11:24;4.75;;;1.85;;
4232;SDS011;2130;48.472;11.934;2023-06-26T15:13:52;4.60;;;1.80;;
4232;SDS011;2130;48.472;11.934;2023-06-26T15:16:22;3.60;;;1.50;;
4232;SDS011;2130;48.472;11.934;2023-06-26T15:18:50;4.03;;;1.90;;
4232;SDS011;2130;48.472;11.934;2023-06-26T15:21:18;4.78;;;1.80;;
4232;SDS011;2130;48.472;11.934;2023-06-26T15:23:46;4.95;;;1.95;;
4232;SDS011;2130;48.472;11.934;2023-06-26T15:26:15;5.55;;;1.90;;